Time;durP1;ratioP1;P1;durP2;ratioP2;P2;SDS_P1;SDS_P2;PMS_P1;PMS_P2;Temp;Humidity;BMP_temperature;BMP_pressure;BME280_temperature;BME280_humidity;BME280_pressure;Samples;Min_cycle;Max_cycle;Signal;HPM_P1;HPM_P2
2022/10/28 00:00:44;;;;;;;1.00;1.00;;;21.00;71.60;;;;;;4995625;28;20057;-19
2022/10/28 00:03:09;;;;;;;1.02;0.95;;;21.00;71.30;;;;;;5010302;28;20042;-28
2022/10/28 00:05:35;;;;;;;1.20;1.10;;;21.10;71.30;;;;;;4994437;28;20044;-18
2022/10/28 00:08:00;;;;;;;0.82;0.82;;;21.10;71.30;;;;;;4994631;28;20415;-17
2022/10/28 00:10:26;;;;;;;1.02;1.02;;;21.10;71.00;;;;;;4994470;28;20050;-18
2022/10/28 00:12:52;;;;;;;1.10;0.98;;;21.10;71.10;;;;;;4992601;28;20046;-18
2022/10/28 00:15:17;;;;;;;0.93;0.93;;;21.00;71.40;;;;;;5006559;28;20038;-18
2022/10/28 00:17:43;;;;;;;1.10;1.02;;;21.00;71.50;;;;;;5008405;28;20513;-18
2022/10/28 00:20:09;;;;;;;1.25;1.15;;;21.00;71.30;;;;;;5002719;28;20046;-17
2022/10/28 00:22:34;;;;;;;0.98;0.70;;;21.00;71.60;;;;;;5008531;28;20041;-18
2022/10/28 00:25:00;;;;;;;1.05;1.02;;;21.00;71.50;;;;;;4998276;28;20517;-17
2022/10/28 00:27:25;;;;;;;1.20;1.10;;;21.00;71.40;;;;;;5002178;28;20045;-22
2022/10/28 00:29:51;;;;;;;1.08;1.00;;;21.00;71.40;;;;;;5006314;28;20045;-17
2022/10/28 00:32:16;;;;;;;0.90;0.80;;;21.10;71.50;;;;;;4998050;28;20511;-18
2022/10/28 00:34:42;;;;;;;1.35;1.10;;;20.90;71.70;;;;;;4990453;28;20042;-18
2022/10/28 00:37:07;;;;;;;1.38;1.10;;;20.90;72.40;;;;;;4995811;28;20048;-13
2022/10/28 00:39:34;;;;;;;0.80;0.80;;;20.90;71.60;;;;;;4992015;28;20080;-13
2022/10/28 00:42:02;;;;;;;1.60;1.15;;;20.90;71.60;;;;;;5014065;28;20053;-14
2022/10/28 00:44:36;;;;;;;1.20;0.93;;;20.90;71.60;;;;;;5014076;28;21902;-12
2022/10/28 00:47:02;;;;;;;1.30;1.20;;;20.90;71.80;;;;;;4996348;28;20054;-13
2022/10/28 00:49:29;;;;;;;1.00;0.95;;;20.90;71.70;;;;;;5044999;28;20036;-12
2022/10/28 00:52:01;;;;;;;1.25;0.88;;;20.90;71.70;;;;;;5003857;28;20120;-12
2022/10/28 00:54:27;;;;;;;1.35;1.25;;;20.90;71.60;;;;;;4999716;28;20047;-12
2022/10/28 00:56:54;;;;;;;1.30;1.00;;;20.90;71.70;;;;;;5013929;28;20050;-12
2022/10/28 00:59:25;;;;;;;1.05;0.95;;;21.00;71.70;;;;;;5004502;28;20053;-12
2022/10/28 01:01:51;;;;;;;0.77;0.73;;;20.90;71.50;;;;;;5016805;28;20103;-12
2022/10/28 01:04:17;;;;;;;1.20;0.98;;;21.00;71.70;;;;;;5009254;28;20455;-12
2022/10/28 01:06:42;;;;;;;1.35;1.00;;;21.00;71.50;;;;;;5009922;28;20430;-12
2022/10/28 01:09:08;;;;;;;1.05;0.85;;;21.00;71.70;;;;;;5015201;28;20049;-12
2022/10/28 01:11:59;;;;;;;0.90;0.90;;;20.90;71.70;;;;;;5000132;28;20062;-12
2022/10/28 01:15:02;;;;;;;1.10;1.00;;;20.90;71.80;;;;;;4978925;28;20071;-12
2022/10/28 01:17:55;;;;;;;0.85;0.85;;;20.90;71.80;;;;;;4996991;28;20046;-12
2022/10/28 01:20:26;;;;;;;0.88;0.88;;;20.90;71.70;;;;;;5003537;28;20053;-12
2022/10/28 01:23:15;;;;;;;0.90;0.90;;;20.90;71.90;;;;;;5004278;28;20046;-12
2022/10/28 01:26:11;;;;;;;0.75;0.68;;;20.90;71.90;;;;;;4993993;28;20434;-12
2022/10/28 01:28:39;;;;;;;1.70;0.90;;;20.90;71.70;;;;;;4982926;28;20181;-14
2022/10/28 01:31:26;;;;;;;1.25;1.10;;;20.90;71.70;;;;;;4992799;28;20114;-13
2022/10/28 01:34:04;;;;;;;0.70;0.70;;;20.90;71.70;;;;;;4995065;28;20044;-12
2022/10/28 01:36:37;;;;;;;1.02;0.93;;;20.90;71.70;;;;;;5005480;28;20076;-12
2022/10/28 01:39:13;;;;;;;1.48;0.82;;;20.80;71.80;;;;;;5009175;28;20054;-13
2022/10/28 01:41:47;;;;;;;1.00;0.90;;;20.90;71.90;;;;;;5011658;28;20525;-12
2022/10/28 01:44:13;;;;;;;0.85;0.85;;;20.90;71.80;;;;;;5011001;28;20057;-12
2022/10/28 01:46:40;;;;;;;1.10;1.05;;;20.90;71.80;;;;;;4997155;28;20598;-15
2022/10/28 01:49:15;;;;;;;1.33;0.80;;;20.90;71.70;;;;;;5005782;28;20494;-12
2022/10/28 01:51:43;;;;;;;0.80;0.80;;;20.90;71.70;;;;;;5001825;28;20045;-13
2022/10/28 01:54:09;;;;;;;2.13;0.98;;;20.90;71.90;;;;;;5010386;28;20053;-13
2022/10/28 01:56:36;;;;;;;1.30;1.10;;;20.90;71.80;;;;;;4997927;28;20045;-13
2022/10/28 01:59:02;;;;;;;0.80;0.80;;;21.00;71.70;;;;;;5013611;28;20050;-13
2022/10/28 02:01:28;;;;;;;1.00;0.70;;;20.90;71.80;;;;;;5004736;28;20047;-13
2022/10/28 02:03:53;;;;;;;1.63;0.90;;;20.90;71.70;;;;;;4998928;28;20498;-14
2022/10/28 02:06:21;;;;;;;2.20;1.17;;;20.90;71.70;;;;;;5000512;28;20045;-12
2022/10/28 02:08:55;;;;;;;1.10;0.85;;;20.90;71.80;;;;;;5013421;28;20319;-12
2022/10/28 02:11:21;;;;;;;1.10;0.93;;;20.90;71.70;;;;;;5006473;28;20057;-12
2022/10/28 02:14:05;;;;;;;1.23;1.00;;;20.90;71.50;;;;;;4995670;28;20043;-12
2022/10/28 02:16:55;;;;;;;0.80;0.80;;;20.90;71.60;;;;;;4992849;28;20050;-13
2022/10/28 02:19:32;;;;;;;1.00;0.80;;;20.90;71.50;;;;;;5027248;28;20053;-12
2022/10/28 02:22:07;;;;;;;1.30;0.70;;;20.90;71.60;;;;;;5010657;28;20049;-12
2022/10/28 02:25:01;;;;;;;0.70;0.70;;;20.80;71.80;;;;;;5014932;28;20108;-12
2022/10/28 02:27:41;;;;;;;0.68;0.68;;;20.80;71.70;;;;;;5013397;28;20061;-13
2022/10/28 02:30:08;;;;;;;1.17;1.08;;;20.90;71.60;;;;;;5012020;28;20107;-12
2022/10/28 02:32:42;;;;;;;1.48;1.17;;;20.90;71.50;;;;;;5002506;28;20050;-12
2022/10/28 02:35:16;;;;;;;3.03;1.00;;;20.90;71.30;;;;;;4983374;28;20516;-12
2022/10/28 02:37:42;;;;;;;1.17;0.88;;;20.90;71.40;;;;;;5016512;28;20104;-13
2022/10/28 02:40:11;;;;;;;0.70;0.65;;;20.90;71.50;;;;;;5012818;28;20050;-13
2022/10/28 02:42:39;;;;;;;1.05;0.82;;;20.90;71.50;;;;;;5012957;28;20053;-13
2022/10/28 02:45:16;;;;;;;0.80;0.80;;;20.90;71.50;;;;;;5011284;28;20049;-13
2022/10/28 02:47:45;;;;;;;1.00;1.00;;;20.80;71.90;;;;;;5007194;28;20525;-13
2022/10/28 02:50:14;;;;;;;1.10;1.00;;;20.80;72.10;;;;;;5013273;28;20053;-13
2022/10/28 02:52:39;;;;;;;1.80;1.00;;;20.90;71.80;;;;;;5009485;28;20041;-13
2022/10/28 02:55:05;;;;;;;1.55;1.05;;;20.90;71.80;;;;;;5008162;28;21922;-13
2022/10/28 02:57:32;;;;;;;0.88;0.80;;;20.90;71.90;;;;;;5003505;28;20049;-13
2022/10/28 03:00:00;;;;;;;1.35;0.80;;;20.90;71.60;;;;;;5011980;28;20041;-13
2022/10/28 03:02:26;;;;;;;2.15;0.93;;;20.90;71.80;;;;;;5017460;28;20577;-13
2022/10/28 03:04:52;;;;;;;0.85;0.85;;;20.80;72.20;;;;;;5007962;28;20050;-13
2022/10/28 03:07:17;;;;;;;1.52;0.98;;;20.80;72.10;;;;;;5019819;28;20477;-13
2022/10/28 03:09:43;;;;;;;1.00;0.90;;;20.80;71.90;;;;;;5016058;28;20045;-13
2022/10/28 03:12:08;;;;;;;0.75;0.75;;;20.80;71.90;;;;;;5009593;28;20129;-12
2022/10/28 03:14:34;;;;;;;1.00;0.80;;;20.90;71.80;;;;;;5002442;28;20039;-13
2022/10/28 03:17:00;;;;;;;1.30;0.90;;;20.90;71.80;;;;;;4994505;28;20080;-12
2022/10/28 03:19:25;;;;;;;0.75;0.75;;;20.80;72.00;;;;;;4993943;28;20134;-12
2022/10/28 03:21:51;;;;;;;1.92;0.80;;;20.70;72.20;;;;;;4993392;28;20172;-12
2022/10/28 03:24:16;;;;;;;1.38;0.80;;;20.70;72.40;;;;;;4998366;28;20041;-12
2022/10/28 03:26:42;;;;;;;0.90;0.70;;;20.70;72.40;;;;;;4996376;28;20053;-12
2022/10/28 03:29:07;;;;;;;1.25;1.15;;;20.70;72.50;;;;;;5005060;28;20453;-12
2022/10/28 03:31:33;;;;;;;0.77;0.70;;;20.70;72.20;;;;;;5010272;28;20049;-18
2022/10/28 03:33:59;;;;;;;1.85;0.65;;;20.70;72.30;;;;;;5017464;28;20046;-12
2022/10/28 03:36:24;;;;;;;1.80;1.40;;;20.70;72.20;;;;;;5007915;28;20519;-12
2022/10/28 03:38:50;;;;;;;0.80;0.80;;;20.70;72.60;;;;;;5005621;28;20042;-12
2022/10/28 03:41:15;;;;;;;3.22;0.82;;;20.60;72.50;;;;;;5000356;28;20056;-12
2022/10/28 03:43:41;;;;;;;0.82;0.82;;;20.70;72.40;;;;;;4992105;28;20173;-12
2022/10/28 03:46:06;;;;;;;2.78;0.98;;;20.70;72.40;;;;;;5013743;28;20038;-12
2022/10/28 03:48:32;;;;;;;0.80;0.80;;;20.60;72.60;;;;;;5001567;28;20606;-15
2022/10/28 03:50:57;;;;;;;1.50;1.00;;;20.60;72.70;;;;;;4993682;28;20082;-13
2022/10/28 03:53:23;;;;;;;1.00;0.90;;;20.70;73.40;;;;;;5006549;28;20034;-18
2022/10/28 03:55:55;;;;;;;2.75;0.90;;;20.60;72.60;;;;;;4999661;28;20495;-12
2022/10/28 03:58:21;;;;;;;0.70;0.70;;;20.60;72.80;;;;;;5005535;28;20133;-13
2022/10/28 04:00:48;;;;;;;0.80;0.60;;;20.60;72.70;;;;;;4994517;28;20184;-13
2022/10/28 04:03:14;;;;;;;1.00;1.00;;;20.60;72.90;;;;;;4993932;28;20050;-12
2022/10/28 04:05:40;;;;;;;0.93;0.93;;;20.70;72.50;;;;;;4996968;28;20422;-12
2022/10/28 04:08:05;;;;;;;0.65;0.65;;;20.70;72.80;;;;;;4995550;28;20061;-12
2022/10/28 04:10:31;;;;;;;1.42;0.82;;;20.60;72.60;;;;;;5018427;28;20041;-12
2022/10/28 04:13:00;;;;;;;1.13;1.08;;;20.60;72.50;;;;;;5012763;28;20406;-12
2022/10/28 04:15:26;;;;;;;0.70;0.70;;;20.70;72.50;;;;;;5012451;28;20136;-12
2022/10/28 04:17:52;;;;;;;0.85;0.85;;;20.70;72.30;;;;;;5008796;28;20074;-13
2022/10/28 04:20:18;;;;;;;0.70;0.70;;;20.70;72.40;;;;;;5013077;28;20047;-12
2022/10/28 04:22:43;;;;;;;0.95;0.60;;;20.60;72.60;;;;;;4996148;28;20050;-12
2022/10/28 04:25:09;;;;;;;1.90;1.08;;;20.60;73.50;;;;;;4993012;28;20520;-12
2022/10/28 04:27:35;;;;;;;1.08;0.73;;;20.60;72.80;;;;;;4996344;28;20029;-12
2022/10/28 04:30:00;;;;;;;1.27;0.82;;;20.50;72.80;;;;;;5013508;28;20034;-13
2022/10/28 04:32:26;;;;;;;0.70;0.70;;;20.60;72.70;;;;;;5006219;28;20074;-13
2022/10/28 04:34:51;;;;;;;0.98;0.95;;;20.50;73.00;;;;;;5008052;28;20513;-12
2022/10/28 04:37:17;;;;;;;1.15;0.90;;;20.50;72.60;;;;;;5001039;28;20086;-13
2022/10/28 04:39:43;;;;;;;1.33;0.80;;;20.60;72.60;;;;;;4991927;28;20057;-13
2022/10/28 04:42:08;;;;;;;1.30;0.90;;;20.50;72.80;;;;;;4994822;28;20209;-12
2022/10/28 04:44:34;;;;;;;0.65;0.65;;;20.60;73.00;;;;;;4989691;28;20026;-13
2022/10/28 04:46:59;;;;;;;0.82;0.80;;;20.60;73.10;;;;;;4992943;28;20042;-13
2022/10/28 04:49:25;;;;;;;1.23;0.85;;;20.60;73.00;;;;;;4989922;28;20113;-13
2022/10/28 04:51:50;;;;;;;0.98;0.68;;;20.60;73.00;;;;;;4991817;28;20038;-21
2022/10/28 04:54:16;;;;;;;2.53;0.68;;;20.60;73.00;;;;;;4992002;28;20054;-12
2022/10/28 04:56:41;;;;;;;2.22;0.98;;;20.60;72.90;;;;;;4992558;28;20057;-13
2022/10/28 04:59:07;;;;;;;0.85;0.85;;;20.60;72.60;;;;;;4992357;28;20117;-12
2022/10/28 05:01:33;;;;;;;0.60;0.60;;;20.60;72.40;;;;;;4992721;28;20050;-13
2022/10/28 05:03:58;;;;;;;0.88;0.70;;;20.60;72.40;;;;;;4991437;28;20070;-13
2022/10/28 05:06:24;;;;;;;0.98;0.70;;;20.60;72.50;;;;;;4992491;28;20037;-13
2022/10/28 05:08:49;;;;;;;2.13;1.02;;;20.60;72.50;;;;;;4997059;28;20042;-14
2022/10/28 05:11:15;;;;;;;0.90;0.73;;;20.60;72.80;;;;;;4996951;28;20045;-12
2022/10/28 05:13:40;;;;;;;1.33;0.70;;;20.70;72.50;;;;;;4995895;28;20104;-13
2022/10/28 05:16:07;;;;;;;1.52;0.90;;;20.60;72.50;;;;;;4997796;28;20045;-12
2022/10/28 05:18:32;;;;;;;0.80;0.77;;;20.70;72.50;;;;;;4998535;28;20038;-12
2022/10/28 05:20:58;;;;;;;2.20;1.30;;;20.70;72.30;;;;;;4996531;28;20743;-12
2022/10/28 05:23:23;;;;;;;0.85;0.85;;;20.60;72.30;;;;;;4995997;28;20050;-13
2022/10/28 05:25:50;;;;;;;0.82;0.82;;;20.80;72.00;;;;;;4991238;28;20098;-12
2022/10/28 05:28:16;;;;;;;0.98;0.85;;;20.70;71.90;;;;;;4993104;28;20100;-13
2022/10/28 05:30:42;;;;;;;0.75;0.75;;;20.70;71.70;;;;;;4992415;28;20474;-12
2022/10/28 05:33:09;;;;;;;1.35;0.80;;;20.80;71.70;;;;;;4991689;28;20042;-12
2022/10/28 05:35:34;;;;;;;1.05;0.85;;;20.80;72.30;;;;;;4990770;28;20066;-11
2022/10/28 05:38:00;;;;;;;0.83;0.83;;;20.80;71.50;;;;;;4633156;28;10000217;-12
2022/10/28 05:40:26;;;;;;;0.77;0.77;;;20.70;71.50;;;;;;4635009;28;10000281;-12
2022/10/28 05:42:51;;;;;;;0.90;0.90;;;20.60;71.70;;;;;;4991922;28;20045;-15
2022/10/28 05:45:17;;;;;;;1.20;0.98;;;20.60;72.50;;;;;;4987337;28;20050;-12
2022/10/28 05:47:43;;;;;;;2.42;1.10;;;20.70;72.50;;;;;;4984167;28;20137;-12
2022/10/28 05:50:10;;;;;;;1.23;0.80;;;20.60;72.50;;;;;;4988852;28;20042;-12
2022/10/28 05:52:35;;;;;;;1.58;0.82;;;20.70;72.30;;;;;;4989874;28;20046;-12
2022/10/28 05:55:01;;;;;;;0.82;0.80;;;20.70;72.30;;;;;;4979656;28;20042;-12
2022/10/28 05:57:26;;;;;;;0.95;0.93;;;20.70;72.30;;;;;;4986572;28;20041;-12
2022/10/28 05:59:52;;;;;;;0.88;0.80;;;20.70;72.40;;;;;;4986985;28;20510;-17
2022/10/28 06:02:17;;;;;;;1.10;0.85;;;20.70;72.40;;;;;;4989039;28;20140;-12
2022/10/28 06:04:43;;;;;;;0.70;0.70;;;20.70;72.20;;;;;;4986148;28;20050;-12
2022/10/28 06:07:09;;;;;;;1.48;0.98;;;20.70;72.30;;;;;;4987400;28;20058;-13
2022/10/28 06:09:34;;;;;;;1.63;0.90;;;20.70;72.30;;;;;;4986736;28;20553;-13
2022/10/28 06:12:00;;;;;;;1.02;0.90;;;20.70;72.30;;;;;;4985467;28;20058;-13
2022/10/28 06:14:25;;;;;;;0.70;0.70;;;20.60;72.40;;;;;;4982877;28;20410;-12
2022/10/28 06:16:51;;;;;;;0.65;0.65;;;20.60;72.60;;;;;;4991285;28;20069;-12
2022/10/28 06:19:16;;;;;;;0.88;0.75;;;20.60;72.60;;;;;;4984862;28;20558;-12
2022/10/28 06:21:42;;;;;;;1.05;0.68;;;20.60;72.10;;;;;;4991924;28;20049;-12
2022/10/28 06:24:08;;;;;;;0.70;0.70;;;20.60;72.50;;;;;;4986991;28;20046;-13
2022/10/28 06:26:34;;;;;;;0.70;0.70;;;20.60;72.30;;;;;;4986258;28;20058;-13
2022/10/28 06:28:59;;;;;;;0.85;0.70;;;20.60;72.50;;;;;;4987719;28;20461;-13
2022/10/28 06:31:25;;;;;;;1.70;0.88;;;20.60;72.30;;;;;;4987112;28;20632;-13
2022/10/28 06:33:50;;;;;;;0.95;0.90;;;20.60;72.20;;;;;;4986523;28;20418;-12
2022/10/28 06:36:16;;;;;;;0.82;0.80;;;20.60;72.10;;;;;;4989677;28;20049;-13
2022/10/28 06:38:42;;;;;;;1.88;0.80;;;20.60;72.00;;;;;;4991737;28;20503;-12
2022/10/28 06:41:07;;;;;;;2.15;0.90;;;20.80;71.40;;;;;;4992779;28;20049;-13
2022/10/28 06:43:33;;;;;;;1.65;1.20;;;20.80;71.60;;;;;;4992461;28;20410;-12
2022/10/28 06:46:02;;;;;;;0.93;0.90;;;20.80;71.90;;;;;;4998655;28;20064;-12
2022/10/28 06:48:28;;;;;;;0.80;0.80;;;20.80;71.40;;;;;;4999943;28;20054;-12
2022/10/28 06:50:55;;;;;;;1.33;0.65;;;20.90;71.50;;;;;;5010241;28;20046;-12
2022/10/28 06:53:20;;;;;;;1.92;1.13;;;20.80;71.70;;;;;;5005304;28;20049;-13
2022/10/28 06:55:53;;;;;;;1.67;0.90;;;20.70;71.70;;;;;;4992684;28;20404;-12
2022/10/28 06:58:18;;;;;;;1.65;1.25;;;20.90;71.50;;;;;;4995795;28;20123;-12
2022/10/28 07:00:44;;;;;;;3.17;1.30;;;20.90;71.10;;;;;;4992542;28;20575;-13
2022/10/28 07:03:09;;;;;;;3.17;1.48;;;20.90;71.20;;;;;;4991665;28;20050;-12
2022/10/28 07:05:35;;;;;;;2.30;1.20;;;20.90;71.20;;;;;;5009616;28;20042;-13
2022/10/28 07:08:01;;;;;;;3.42;1.33;;;20.90;71.20;;;;;;4994626;28;20054;-19
2022/10/28 07:10:26;;;;;;;1.38;1.20;;;20.80;71.50;;;;;;4996134;28;20519;-12
2022/10/28 07:12:52;;;;;;;4.85;1.35;;;20.70;71.60;;;;;;5038216;28;20045;-13
2022/10/28 07:15:17;;;;;;;2.38;1.13;;;20.70;71.60;;;;;;4991376;28;20042;-13
2022/10/28 07:17:43;;;;;;;4.85;1.45;;;20.70;71.90;;;;;;4998655;28;20506;-15
2022/10/28 07:20:09;;;;;;;2.63;1.45;;;20.70;71.60;;;;;;5002990;28;20124;-13
2022/10/28 07:22:35;;;;;;;5.63;1.45;;;20.70;71.70;;;;;;4992730;28;20423;-13
2022/10/28 07:25:00;;;;;;;4.70;1.25;;;20.80;71.50;;;;;;4991116;28;20571;-13
2022/10/28 07:27:26;;;;;;;2.45;1.67;;;20.70;71.70;;;;;;4996372;28;20054;-13
2022/10/28 07:29:52;;;;;;;7.13;1.48;;;20.70;71.60;;;;;;4995008;28;20062;-13
2022/10/28 07:32:17;;;;;;;7.57;1.33;;;20.70;71.70;;;;;;5012319;28;20093;-12
2022/10/28 07:34:43;;;;;;;5.75;1.40;;;20.70;71.50;;;;;;5015517;28;20115;-12
2022/10/28 07:37:09;;;;;;;3.03;1.20;;;20.70;71.70;;;;;;5008489;28;20568;-12
2022/10/28 07:39:35;;;;;;;2.85;1.30;;;20.70;71.50;;;;;;5006083;28;20045;-13
2022/10/28 07:42:01;;;;;;;2.40;1.08;;;20.80;71.40;;;;;;5010325;28;20052;-12
2022/10/28 07:44:26;;;;;;;3.20;1.58;;;20.80;71.40;;;;;;4997951;28;20446;-12
2022/10/28 07:46:52;;;;;;;5.38;1.70;;;20.80;71.50;;;;;;5008779;28;20048;-13
2022/10/28 07:49:18;;;;;;;2.05;1.35;;;20.80;71.50;;;;;;5009841;28;20077;-12
2022/10/28 07:51:43;;;;;;;3.13;1.35;;;20.80;71.50;;;;;;5012327;28;20514;-12
2022/10/28 07:54:09;;;;;;;1.58;1.00;;;20.80;71.40;;;;;;4996655;28;20066;-21
2022/10/28 07:56:34;;;;;;;1.98;0.90;;;20.80;71.20;;;;;;4994969;28;20137;-12
2022/10/28 07:59:00;;;;;;;2.30;0.95;;;20.80;71.20;;;;;;5007112;28;20517;-13
2022/10/28 08:01:25;;;;;;;4.72;1.10;;;20.80;71.20;;;;;;5011035;28;20541;-13
2022/10/28 08:03:51;;;;;;;1.63;1.45;;;20.80;71.30;;;;;;5010312;28;20053;-12
2022/10/28 08:06:18;;;;;;;1.60;1.50;;;20.80;71.20;;;;;;5007640;28;20035;-13
2022/10/28 08:08:44;;;;;;;1.88;0.88;;;20.80;71.20;;;;;;5014853;28;20119;-24
2022/10/28 08:11:11;;;;;;;2.13;1.15;;;20.80;71.10;;;;;;5013166;28;20038;-13
2022/10/28 08:13:37;;;;;;;3.67;1.75;;;20.80;71.20;;;;;;5004933;28;20050;-12
2022/10/28 08:16:02;;;;;;;1.20;0.77;;;20.80;71.20;;;;;;5009627;28;21513;-14
2022/10/28 08:18:28;;;;;;;1.35;0.98;;;20.90;71.00;;;;;;5007870;28;20121;-14
2022/10/28 08:20:53;;;;;;;3.92;1.23;;;20.90;70.90;;;;;;5003836;28;20098;-14
2022/10/28 08:23:19;;;;;;;3.17;1.48;;;20.90;71.00;;;;;;5015245;28;20413;-12
2022/10/28 08:25:48;;;;;;;2.25;1.45;;;20.90;71.00;;;;;;4992467;28;20046;-13
2022/10/28 08:28:14;;;;;;;1.63;1.20;;;21.00;71.00;;;;;;4993480;28;20046;-13
2022/10/28 08:30:39;;;;;;;1.42;1.10;;;20.90;71.10;;;;;;4995413;28;20046;-13
2022/10/28 08:33:05;;;;;;;2.42;1.27;;;20.90;71.00;;;;;;4995699;28;20415;-14
2022/10/28 08:35:31;;;;;;;2.35;0.88;;;20.90;71.00;;;;;;4996838;28;20108;-13
2022/10/28 08:37:56;;;;;;;3.85;0.90;;;21.00;70.90;;;;;;5014487;28;20125;-13
2022/10/28 08:40:27;;;;;;;2.28;1.05;;;20.90;70.80;;;;;;5019729;28;20057;-13
2022/10/28 08:42:53;;;;;;;1.33;1.17;;;20.90;71.60;;;;;;5013338;28;20112;-12
2022/10/28 08:45:39;;;;;;;3.45;1.30;;;20.90;71.10;;;;;;5003599;28;20045;-14
2022/10/28 08:48:14;;;;;;;4.03;1.45;;;20.90;71.00;;;;;;4992645;28;20498;-13
2022/10/28 08:50:48;;;;;;;1.95;1.02;;;20.90;70.90;;;;;;5004183;28;20126;-12
2022/10/28 08:53:52;;;;;;;2.17;1.10;;;20.90;70.80;;;;;;4993237;28;20076;-13
2022/10/28 08:56:24;;;;;;;0.85;0.80;;;21.00;70.80;;;;;;5008720;28;20038;-13
2022/10/28 08:58:53;;;;;;;2.72;1.00;;;20.90;70.70;;;;;;4999675;28;20033;-13
2022/10/28 09:01:23;;;;;;;1.27;0.93;;;21.00;70.80;;;;;;5027467;28;20034;-13
2022/10/28 09:03:49;;;;;;;1.73;0.90;;;21.00;70.80;;;;;;5009108;28;20026;-13
2022/10/28 09:06:15;;;;;;;4.47;0.88;;;20.90;70.80;;;;;;5011562;28;20044;-13
2022/10/28 09:08:42;;;;;;;0.85;0.80;;;21.10;70.70;;;;;;5015494;28;20045;-19
2022/10/28 09:11:17;;;;;;;1.38;0.82;;;21.00;70.70;;;;;;5031463;28;20037;-13
2022/10/28 09:14:01;;;;;;;4.05;1.13;;;21.00;70.50;;;;;;5012735;28;20045;-13
2022/10/28 09:16:27;;;;;;;1.13;1.02;;;21.00;70.70;;;;;;5011663;28;20054;-14
2022/10/28 09:18:58;;;;;;;1.60;1.17;;;20.90;70.70;;;;;;5007163;28;20057;-13
2022/10/28 09:21:45;;;;;;;1.80;0.90;;;21.00;71.00;;;;;;5012365;28;20518;-14
2022/10/28 09:24:17;;;;;;;1.35;0.80;;;21.10;70.70;;;;;;5009775;28;20045;-13
2022/10/28 09:26:57;;;;;;;6.72;1.05;;;21.00;71.00;;;;;;5009365;28;20540;-12
2022/10/28 09:29:53;;;;;;;1.02;0.70;;;21.00;71.00;;;;;;4996242;28;20817;-13
2022/10/28 09:32:40;;;;;;;1.15;1.02;;;21.00;71.00;;;;;;4993785;28;20482;-13
2022/10/28 09:35:10;;;;;;;1.40;0.88;;;21.00;71.00;;;;;;4992430;28;20050;-13
2022/10/28 09:37:46;;;;;;;1.48;0.80;;;21.00;71.10;;;;;;4994568;28;20046;-13
2022/10/28 09:40:20;;;;;;;0.82;0.80;;;21.00;71.10;;;;;;4992928;28;20068;-13
2022/10/28 09:43:01;;;;;;;;;;;21.00;71.20;;;;;;4988646;28;20112;-13
2022/10/28 09:45:29;;;;;;;1.88;0.85;;;21.00;71.30;;;;;;4988540;28;19914;-16
2022/10/28 09:47:59;;;;;;;0.95;0.85;;;21.10;71.10;;;;;;4993554;28;20047;-13
2022/10/28 09:50:27;;;;;;;1.20;0.88;;;21.20;70.90;;;;;;4995639;28;20054;-13
2022/10/28 09:53:09;;;;;;;0.70;0.70;;;21.30;70.30;;;;;;5010273;28;20523;-14
2022/10/28 09:55:35;;;;;;;0.68;0.60;;;21.30;70.80;;;;;;5009906;28;20045;-13
2022/10/28 09:58:02;;;;;;;1.10;0.85;;;21.20;70.90;;;;;;5013720;28;20104;-13
2022/10/28 10:00:28;;;;;;;1.33;0.73;;;21.20;71.10;;;;;;5007838;28;20054;-13
2022/10/28 10:02:56;;;;;;;1.13;0.80;;;21.20;70.90;;;;;;4995220;28;20049;-13
2022/10/28 10:05:22;;;;;;;0.98;0.70;;;21.20;71.00;;;;;;4994437;28;20054;-14
2022/10/28 10:07:56;;;;;;;3.22;1.50;;;21.20;71.10;;;;;;5010292;28;20037;-14
2022/10/28 10:10:31;;;;;;;2.38;0.52;;;21.20;71.10;;;;;;5017002;28;20049;-14
2022/10/28 10:12:59;;;;;;;1.23;0.80;;;21.10;71.40;;;;;;5007875;28;20574;-14
2022/10/28 10:15:35;;;;;;;1.50;0.60;;;21.10;71.40;;;;;;4996985;28;20066;-14
2022/10/28 10:18:02;;;;;;;1.83;0.80;;;21.10;71.40;;;;;;5011964;28;20026;-14
2022/10/28 10:20:28;;;;;;;1.55;0.60;;;21.10;71.30;;;;;;5005701;28;20057;-14
2022/10/28 10:22:53;;;;;;;0.70;0.60;;;21.10;71.40;;;;;;5025807;28;20045;-14
2022/10/28 10:25:19;;;;;;;2.30;0.70;;;21.10;71.50;;;;;;5017116;28;20033;-14
2022/10/28 10:28:00;;;;;;;0.77;0.60;;;21.10;72.30;;;;;;5008364;28;20050;-14
2022/10/28 10:30:35;;;;;;;0.70;0.50;;;21.10;71.30;;;;;;5012672;28;20056;-14
2022/10/28 10:33:01;;;;;;;0.70;0.60;;;21.10;71.30;;;;;;5006445;28;20026;-14
2022/10/28 10:35:33;;;;;;;2.35;0.68;;;21.10;71.20;;;;;;5017930;28;20037;-14
2022/10/28 10:38:00;;;;;;;1.88;0.70;;;21.20;71.10;;;;;;5013559;28;20276;-14
2022/10/28 10:40:33;;;;;;;0.52;0.52;;;21.10;71.10;;;;;;5013508;28;20053;-14
2022/10/28 10:43:17;;;;;;;1.05;0.63;;;21.10;71.10;;;;;;5010672;28;20063;-14
2022/10/28 10:46:13;;;;;;;1.13;0.60;;;21.10;71.10;;;;;;4998015;28;20046;-14
2022/10/28 10:48:39;;;;;;;2.35;0.80;;;21.10;71.10;;;;;;4997506;28;20056;-15
2022/10/28 10:51:21;;;;;;;0.68;0.60;;;21.10;70.90;;;;;;5004294;28;20120;-14
2022/10/28 10:53:48;;;;;;;0.95;0.57;;;21.10;71.00;;;;;;5006901;28;20062;-14
2022/10/28 10:56:14;;;;;;;0.60;0.52;;;21.10;71.90;;;;;;5010570;28;20468;-14
2022/10/28 10:58:50;;;;;;;0.63;0.50;;;21.10;71.10;;;;;;5015193;28;20047;-15
2022/10/28 11:01:20;;;;;;;2.25;0.63;;;21.10;71.10;;;;;;5010688;28;20128;-15
2022/10/28 11:03:54;;;;;;;0.73;0.60;;;21.10;71.00;;;;;;5012958;28;20041;-13
2022/10/28 11:06:29;;;;;;;0.70;0.35;;;21.10;71.00;;;;;;5020584;28;20641;-14
2022/10/28 11:09:05;;;;;;;2.10;0.70;;;21.10;70.80;;;;;;5003422;28;20107;-14
2022/10/28 11:11:38;;;;;;;0.75;0.60;;;21.10;71.80;;;;;;5006173;28;20068;-14
2022/10/28 11:14:11;;;;;;;1.55;0.32;;;21.10;71.00;;;;;;5013210;28;20042;-14
2022/10/28 11:16:46;;;;;;;1.15;0.50;;;21.10;71.00;;;;;;5013945;28;20453;-14
2022/10/28 11:19:19;;;;;;;0.88;0.40;;;21.10;70.90;;;;;;5003264;28;20051;-14
2022/10/28 11:22:16;;;;;;;1.75;0.38;;;21.20;70.70;;;;;;4994177;28;20121;-14
2022/10/28 11:25:06;;;;;;;0.52;0.52;;;21.20;70.70;;;;;;5010172;28;20042;-16
2022/10/28 11:27:50;;;;;;;0.80;0.60;;;21.10;70.70;;;;;;5013863;28;20096;-13
2022/10/28 11:30:17;;;;;;;1.23;0.50;;;21.10;70.80;;;;;;5015555;28;20191;-13
2022/10/28 11:32:52;;;;;;;0.57;0.40;;;21.20;71.10;;;;;;4989399;28;20049;-14
2022/10/28 11:35:29;;;;;;;0.93;0.60;;;21.20;70.90;;;;;;4992729;28;20122;-16
2022/10/28 11:38:04;;;;;;;1.00;0.52;;;21.20;71.00;;;;;;4992347;28;20046;-13
2022/10/28 11:40:42;;;;;;;0.98;0.52;;;21.20;71.10;;;;;;4993230;28;20116;-14
2022/10/28 11:43:29;;;;;;;2.30;0.45;;;21.30;71.00;;;;;;4991537;28;20096;-14
2022/10/28 11:46:11;;;;;;;1.02;0.50;;;21.30;71.80;;;;;;5007502;28;20105;-13
2022/10/28 11:48:43;;;;;;;0.63;0.45;;;21.30;70.90;;;;;;5010358;28;20052;-21
2022/10/28 11:51:11;;;;;;;0.65;0.40;;;21.30;70.80;;;;;;5028695;28;20044;-14
2022/10/28 11:54:13;;;;;;;0.47;0.45;;;21.40;70.80;;;;;;5024909;28;20054;-13
2022/10/28 11:56:49;;;;;;;0.90;0.50;;;21.40;70.70;;;;;;5005590;28;20517;-14
2022/10/28 11:59:20;;;;;;;0.75;0.50;;;21.40;70.50;;;;;;4993169;28;20111;-14
2022/10/28 12:01:59;;;;;;;0.50;0.40;;;21.30;70.50;;;;;;4994329;28;20084;-13
2022/10/28 12:04:55;;;;;;;0.75;0.70;;;21.60;70.00;;;;;;4991772;28;20042;-14
2022/10/28 12:07:36;;;;;;;1.27;0.73;;;21.60;69.90;;;;;;4992455;28;20038;-13
2022/10/28 12:10:32;;;;;;;1.00;0.80;;;21.50;70.80;;;;;;5004162;28;20068;-13
2022/10/28 12:13:09;;;;;;;1.38;0.80;;;21.40;70.70;;;;;;5013341;28;20092;-13
2022/10/28 12:16:02;;;;;;;2.05;0.88;;;21.40;70.70;;;;;;5008014;28;20402;-13
2022/10/28 12:19:13;;;;;;;0.88;0.77;;;21.40;70.70;;;;;;5016016;28;20080;-14
2022/10/28 12:22:06;;;;;;;0.63;0.60;;;21.40;70.60;;;;;;5003742;28;20121;-13
2022/10/28 12:24:34;;;;;;;1.75;0.68;;;21.50;70.90;;;;;;4994778;28;20483;-14
2022/10/28 12:27:01;;;;;;;2.10;0.80;;;21.50;70.70;;;;;;4988326;28;20045;-13
2022/10/28 12:29:32;;;;;;;1.58;0.80;;;21.50;70.80;;;;;;4990688;28;20158;-14
2022/10/28 12:32:11;;;;;;;1.05;0.80;;;21.50;70.70;;;;;;5002166;28;20053;-13
2022/10/28 12:34:41;;;;;;;2.17;1.20;;;21.40;70.50;;;;;;5007809;28;20061;-13
2022/10/28 12:37:20;;;;;;;1.10;0.60;;;21.50;70.70;;;;;;5014197;28;20144;-28
2022/10/28 12:40:20;;;;;;;1.15;0.80;;;21.50;70.50;;;;;;5009394;28;20049;-23
2022/10/28 12:43:06;;;;;;;2.28;0.68;;;21.50;70.80;;;;;;5008642;28;20042;-22
2022/10/28 12:45:32;;;;;;;1.20;0.57;;;21.50;70.60;;;;;;4992635;28;20076;-23
2022/10/28 12:48:04;;;;;;;1.40;0.77;;;21.50;70.50;;;;;;4985369;28;20069;-24
2022/10/28 12:50:45;;;;;;;1.48;0.70;;;21.50;70.60;;;;;;5000678;28;20038;-33
2022/10/28 12:53:29;;;;;;;1.23;0.60;;;21.60;70.60;;;;;;4992629;28;20057;-23
2022/10/28 12:55:58;;;;;;;;;;;21.60;70.70;;;;;;5019681;28;20064;-24
2022/10/28 12:58:39;;;;;;;1.48;0.70;;;21.50;70.40;;;;;;5009132;28;20358;-26
2022/10/28 13:01:10;;;;;;;0.50;0.28;;;21.50;70.90;;;;;;5016409;28;20515;-23
2022/10/28 13:03:35;;;;;;;0.77;0.50;;;21.60;70.90;;;;;;5006073;28;20053;-24